createdAt,value
2019-02-22T00:01:07.646Z,91.11
2019-02-22T00:04:12.966Z,90.83
2019-02-22T00:07:18.132Z,91.75
2019-02-22T00:10:23.488Z,91.87
2019-02-22T00:13:28.694Z,92.39
2019-02-22T00:16:33.835Z,92.52
2019-02-22T00:19:38.996Z,92.69
2019-02-22T00:22:44.086Z,92.56
2019-02-22T00:25:49.229Z,92.77
2019-02-22T00:28:54.396Z,92.75
2019-02-22T00:31:59.638Z,92.90
2019-02-22T00:35:04.957Z,92.77
2019-02-22T00:38:10.186Z,92.74
2019-02-22T00:41:16.268Z,91.60
2019-02-22T00:44:22.876Z,90.80
2019-02-22T00:47:28.069Z,88.90
2019-02-22T00:50:33.212Z,88.70
2019-02-22T00:53:38.497Z,88.24
2019-02-22T00:56:43.609Z,89.38
2019-02-22T00:59:48.756Z,88.68
2019-02-22T01:02:53.879Z,88.28
2019-02-22T01:05:59.045Z,88.86
2019-02-22T01:09:04.895Z,88.27
2019-02-22T01:12:11.637Z,87.73
2019-02-22T01:15:16.792Z,86.10
2019-02-22T01:18:21.986Z,84.56
2019-02-22T01:21:27.271Z,83.05
2019-02-22T01:24:32.479Z,83.27
2019-02-22T01:27:38.676Z,81.85
2019-02-22T01:30:43.843Z,81.67
2019-02-22T01:33:50.118Z,81.45
2019-02-22T01:36:55.190Z,81.55
2019-02-22T01:40:00.397Z,80.90
2019-02-22T01:43:05.553Z,80.48
2019-02-22T01:46:10.706Z,80.88
2019-02-22T01:49:15.872Z,81.23
2019-02-22T01:52:21.013Z,81.39
2019-02-22T01:55:26.212Z,79.84
2019-02-22T01:58:31.457Z,80.97
2019-02-22T02:01:36.610Z,81.57
2019-02-22T02:04:41.953Z,81.73
2019-02-22T02:07:47.124Z,80.60
2019-02-22T02:10:54.478Z,81.21
2019-02-22T02:14:00.805Z,81.49
2019-02-22T02:17:06.073Z,81.56
2019-02-22T02:20:11.666Z,82.06
2019-02-22T02:23:16.808Z,81.94
2019-02-22T02:26:21.920Z,81.88
2019-02-22T02:29:27.043Z,81.87
2019-02-22T02:32:32.206Z,81.26
2019-02-22T02:35:37.374Z,82.06
2019-02-22T02:38:42.594Z,81.64
2019-02-22T02:41:47.814Z,81.42
2019-02-22T02:44:53.035Z,81.48
2019-02-22T02:47:58.263Z,81.66
2019-02-22T02:51:03.445Z,82.73
2019-02-22T02:54:08.621Z,82.57
2019-02-22T02:57:13.712Z,82.22
2019-02-22T03:00:18.907Z,82.80
2019-02-22T03:03:24.071Z,83.11
2019-02-22T03:06:43.713Z,83.66
2019-02-22T03:09:48.917Z,83.54
2019-02-22T03:12:55.124Z,83.26
2019-02-22T03:16:00.183Z,83.08
2019-02-22T03:19:05.293Z,82.74
2019-02-22T03:22:10.504Z,81.94
2019-02-22T03:25:15.681Z,82.82
2019-02-22T03:28:21.767Z,82.33
2019-02-22T03:31:26.978Z,82.95
2019-02-22T03:34:32.126Z,82.45
2019-02-22T03:37:37.267Z,82.52
2019-02-22T03:40:42.412Z,82.96
2019-02-22T03:43:48.611Z,82.90
2019-02-22T03:46:53.772Z,83.39
2019-02-22T03:49:58.907Z,83.67
2019-02-22T03:53:22.992Z,84.01
2019-02-22T03:56:28.110Z,84.80
2019-02-22T03:59:33.352Z,84.79
2019-02-22T04:02:38.529Z,84.60
2019-02-22T04:05:43.639Z,84.74
2019-02-22T04:08:48.802Z,85.24
2019-02-22T04:11:53.891Z,85.85
2019-02-22T04:14:59.135Z,85.86
2019-02-22T04:18:04.273Z,85.25
2019-02-22T04:21:09.512Z,85.55
2019-02-22T04:24:14.662Z,85.84
2019-02-22T04:27:19.960Z,85.83
2019-02-22T04:30:25.109Z,86.53
2019-02-22T04:33:30.317Z,85.88
2019-02-22T04:36:35.575Z,85.76
2019-02-22T04:39:40.792Z,85.43
2019-02-22T04:42:45.893Z,86.28
2019-02-22T04:45:51.014Z,87.42
2019-02-22T04:48:56.221Z,86.66
2019-02-22T04:52:01.341Z,86.86
2019-02-22T04:55:06.600Z,87.59
2019-02-22T04:58:11.713Z,87.38
2019-02-22T05:01:16.917Z,87.29
2019-02-22T05:04:22.121Z,87.01
2019-02-22T05:07:27.313Z,87.88
2019-02-22T05:10:32.431Z,87.33
2019-02-22T05:13:37.629Z,86.09
2019-02-22T05:16:42.817Z,85.08
2019-02-22T05:19:47.954Z,86.36
2019-02-22T05:23:03.446Z,85.92
2019-02-22T05:25:59.927Z,87.07
2019-02-22T05:29:05.076Z,86.25
2019-02-22T05:32:10.302Z,85.59
2019-02-22T05:35:15.491Z,86.39
2019-02-22T05:38:20.600Z,87.14
2019-02-22T05:41:25.742Z,87.28
2019-02-22T05:44:30.986Z,87.63
2019-02-22T05:47:36.124Z,87.94
2019-02-22T05:50:41.417Z,88.54
2019-02-22T05:53:46.556Z,89.04
2019-02-22T05:56:54.696Z,89.53
2019-02-22T05:59:58.608Z,89.05
2019-02-22T06:03:03.710Z,89.46
2019-02-22T06:06:08.844Z,89.62
2019-02-22T06:09:14.088Z,89.72
2019-02-22T06:12:19.239Z,90.00
2019-02-22T06:15:24.543Z,90.14
2019-02-22T06:18:29.655Z,89.40
2019-02-22T06:21:34.894Z,89.66
2019-02-22T06:24:40.003Z,89.64
2019-02-22T06:27:46.193Z,89.85
2019-02-22T06:30:51.374Z,89.22
2019-02-22T06:33:56.687Z,87.96
2019-02-22T06:37:02.471Z,88.44
2019-02-22T06:40:08.793Z,88.71
2019-02-22T06:43:14.010Z,88.13
2019-02-22T06:46:19.294Z,87.37
2019-02-22T06:49:24.568Z,86.03
2019-02-22T06:52:29.910Z,85.12
2019-02-22T06:55:35.067Z,86.02
2019-02-22T06:58:40.346Z,84.59
2019-02-22T07:01:45.534Z,84.86
2019-02-22T07:04:50.686Z,85.17
2019-02-22T07:07:56.898Z,84.46
2019-02-22T07:11:24.955Z,84.04
2019-02-22T07:14:30.114Z,83.75
2019-02-22T07:17:35.226Z,82.31
2019-02-22T07:20:40.366Z,80.96
2019-02-22T07:23:45.622Z,80.14
2019-02-22T07:26:50.806Z,80.14
2019-02-22T07:29:56.034Z,81.01
2019-02-22T07:33:01.192Z,82.37
2019-02-22T07:36:06.417Z,81.94
2019-02-22T07:39:11.618Z,80.72
2019-02-22T07:42:16.840Z,80.97
2019-02-22T07:45:21.990Z,80.58
2019-02-22T07:48:27.174Z,80.53
2019-02-22T07:51:32.330Z,81.05
2019-02-22T07:54:37.548Z,82.10
2019-02-22T07:57:42.696Z,81.07
2019-02-22T08:00:48.021Z,81.20
2019-02-22T08:03:54.232Z,81.47
2019-02-22T08:06:59.473Z,80.87
2019-02-22T08:10:05.155Z,80.66
2019-02-22T08:13:19.257Z,80.75
2019-02-22T08:16:17.193Z,79.66
2019-02-22T08:19:22.411Z,79.45
2019-02-22T08:22:27.578Z,78.10
2019-02-22T08:25:32.831Z,77.30
2019-02-22T08:28:38.060Z,76.33
2019-02-22T08:31:43.242Z,76.07
2019-02-22T08:34:48.365Z,75.25
2019-02-22T08:37:53.569Z,73.13
2019-02-22T08:40:58.706Z,72.71
2019-02-22T08:44:03.869Z,71.37
2019-02-22T08:47:09.077Z,71.90
2019-02-22T08:50:14.578Z,70.86
2019-02-22T08:53:19.922Z,70.65
2019-02-22T08:56:25.108Z,70.83
2019-02-22T08:59:30.513Z,68.77
2019-02-22T09:02:35.682Z,69.34
2019-02-22T09:05:40.885Z,70.38
2019-02-22T09:08:46.310Z,69.76
2019-02-22T09:11:51.472Z,68.46
2019-02-22T09:14:56.771Z,68.63
2019-02-22T09:18:01.890Z,65.72
2019-02-22T09:21:07.137Z,67.55
2019-02-22T09:24:12.289Z,65.53
2019-02-22T09:27:17.348Z,63.50
2019-02-22T09:30:22.519Z,63.71
2019-02-22T09:33:27.681Z,61.89
2019-02-22T09:36:32.912Z,62.13
2019-02-22T09:39:38.323Z,63.16
2019-02-22T09:42:43.514Z,63.92
2019-02-22T09:45:48.729Z,63.83
2019-02-22T09:48:53.851Z,63.00
2019-02-22T09:51:58.948Z,63.53
2019-02-22T09:55:04.170Z,64.08
2019-02-22T09:58:11.129Z,64.04
2019-02-22T10:01:16.295Z,62.33
2019-02-22T10:04:21.459Z,62.01
2019-02-22T10:07:26.618Z,62.63
2019-02-22T10:10:31.767Z,63.03
2019-02-22T10:13:37.027Z,63.30
2019-02-22T10:16:42.275Z,64.44
2019-02-22T10:19:47.446Z,64.62
2019-02-22T10:22:52.638Z,64.49
2019-02-22T10:25:57.780Z,64.30
2019-02-22T10:29:03.012Z,63.49
2019-02-22T10:32:08.180Z,63.39
2019-02-22T10:35:13.459Z,63.15
2019-02-22T10:38:18.780Z,62.81
2019-02-22T10:41:23.892Z,62.68
2019-02-22T10:44:29.037Z,62.76
2019-02-22T10:47:34.138Z,62.77
2019-02-22T10:50:39.347Z,61.93
2019-02-22T10:53:44.439Z,62.70
2019-02-22T10:56:49.632Z,62.35
2019-02-22T10:59:54.734Z,62.42
2019-02-22T11:02:59.922Z,62.18
2019-02-22T11:06:05.243Z,62.45
2019-02-22T11:09:10.452Z,61.00
2019-02-22T11:12:15.778Z,61.85
2019-02-22T11:15:20.929Z,61.61
2019-02-22T11:18:26.036Z,61.88
2019-02-22T11:21:31.216Z,61.36
2019-02-22T11:24:36.365Z,61.93
2019-02-22T11:27:41.516Z,61.78
2019-02-22T11:30:47.074Z,60.51
2019-02-22T11:33:52.373Z,61.24
2019-02-22T11:36:57.593Z,60.66
2019-02-22T11:40:02.757Z,60.80
2019-02-22T11:43:07.958Z,60.59
2019-02-22T11:46:14.107Z,59.37
2019-02-22T11:49:19.260Z,60.42
2019-02-22T11:52:24.369Z,60.20
2019-02-22T11:55:29.587Z,59.19
2019-02-22T11:58:34.810Z,60.09
2019-02-22T12:01:40.004Z,58.49
2019-02-22T12:04:45.306Z,60.33
2019-02-22T12:07:50.522Z,59.65
2019-02-22T12:10:55.794Z,59.10
2019-02-22T12:14:00.996Z,57.64
2019-02-22T12:17:06.275Z,58.58
2019-02-22T12:20:11.720Z,59.44
2019-02-22T12:23:16.938Z,59.28
2019-02-22T12:26:22.111Z,59.93
2019-02-22T12:29:27.328Z,59.07
2019-02-22T12:32:32.507Z,58.72
2019-02-22T12:35:37.668Z,58.44
2019-02-22T12:38:42.899Z,58.01
2019-02-22T12:41:48.113Z,58.68
2019-02-22T12:45:02.508Z,58.37
2019-02-22T12:48:00.342Z,58.35
2019-02-22T12:51:05.511Z,58.66
2019-02-22T12:54:10.744Z,57.81
2019-02-22T12:57:15.891Z,59.23
2019-02-22T13:00:21.052Z,58.43
2019-02-22T13:03:26.547Z,59.55
2019-02-22T13:06:31.700Z,59.05
2019-02-22T13:09:37.224Z,59.34
2019-02-22T13:12:42.615Z,58.61
2019-02-22T13:15:47.967Z,58.17
2019-02-22T13:18:53.170Z,58.24
2019-02-22T13:21:58.428Z,57.03
2019-02-22T13:25:03.724Z,56.99
2019-02-22T13:28:08.887Z,57.83
2019-02-22T13:31:14.066Z,57.26
2019-02-22T13:34:19.273Z,57.65
2019-02-22T13:37:25.504Z,56.24
2019-02-22T13:40:31.753Z,55.14
2019-02-22T13:43:36.973Z,56.22
2019-02-22T13:46:42.140Z,56.33
2019-02-22T13:49:47.598Z,56.16
2019-02-22T13:52:52.731Z,56.83
2019-02-22T13:55:57.926Z,56.71
2019-02-22T13:59:03.083Z,58.04
2019-02-22T14:02:08.211Z,57.18
2019-02-22T14:05:13.468Z,57.62
2019-02-22T14:08:18.738Z,57.01
2019-02-22T14:11:23.896Z,57.34
2019-02-22T14:14:29.064Z,57.51
2019-02-22T14:17:34.239Z,57.70
2019-02-22T14:20:39.429Z,57.87
2019-02-22T14:23:44.574Z,57.24
2019-02-22T14:26:49.774Z,57.82
2019-02-22T14:29:54.894Z,58.07
2019-02-22T14:33:00.141Z,58.88
2019-02-22T14:36:05.281Z,58.97
2019-02-22T14:39:10.733Z,59.10
2019-02-22T14:42:16.071Z,58.42
2019-02-22T14:45:21.300Z,58.13
2019-02-22T14:48:26.523Z,58.80
2019-02-22T14:51:31.729Z,58.29
2019-02-22T14:54:36.949Z,58.99
2019-02-22T14:57:44.939Z,58.77
2019-02-22T15:00:49.193Z,59.49
2019-02-22T15:06:49.710Z,58.90
2019-02-22T15:09:54.824Z,59.24
2019-02-22T15:13:00.095Z,58.97
2019-02-22T15:16:29.526Z,58.92
2019-02-22T15:19:34.644Z,59.37
2019-02-22T15:22:39.782Z,60.13
2019-02-22T15:25:44.929Z,60.24
2019-02-22T15:28:50.093Z,60.15
2019-02-22T15:31:55.306Z,60.62
2019-02-22T15:35:00.492Z,61.75
2019-02-22T15:38:06.935Z,62.27
2019-02-22T15:41:12.251Z,61.64
2019-02-22T15:44:17.518Z,62.89
2019-02-22T15:47:22.671Z,63.85
2019-02-22T15:50:27.833Z,63.68
2019-02-22T15:53:33.079Z,63.56
2019-02-22T15:56:38.280Z,63.64
2019-02-22T15:59:43.514Z,64.04
2019-02-22T16:02:48.675Z,64.60
2019-02-22T16:05:53.833Z,65.41
2019-02-22T16:08:58.976Z,65.17
2019-02-22T16:12:04.048Z,64.91
2019-02-22T16:15:09.537Z,65.77
2019-02-22T16:18:14.876Z,65.44
2019-02-22T16:21:19.995Z,64.93
2019-02-22T16:24:25.129Z,63.67
2019-02-22T16:27:30.337Z,64.03
2019-02-22T16:30:37.146Z,63.67
2019-02-22T16:33:42.337Z,63.31
2019-02-22T16:36:47.489Z,64.63
2019-02-22T16:39:52.635Z,64.28
2019-02-22T16:42:57.766Z,65.02
2019-02-22T16:46:03.000Z,65.25
2019-02-22T16:49:08.098Z,65.59
2019-02-22T16:52:13.249Z,65.12
2019-02-22T16:55:18.440Z,65.21
2019-02-22T16:58:23.670Z,65.19
2019-02-22T17:01:28.978Z,65.49
2019-02-22T17:04:35.098Z,66.53
2019-02-22T17:07:40.281Z,66.80
2019-02-22T17:10:45.488Z,66.79
2019-02-22T17:13:50.781Z,67.62
2019-02-22T17:16:56.014Z,67.84
2019-02-22T17:20:01.227Z,68.48
2019-02-22T17:23:06.799Z,68.63
2019-02-22T17:26:15.232Z,68.70
2019-02-22T17:29:20.346Z,69.63
2019-02-22T17:32:26.603Z,69.32
2019-02-22T17:35:31.756Z,67.93
2019-02-22T17:38:37.009Z,68.45
2019-02-22T17:41:42.937Z,69.23
2019-02-22T17:44:48.185Z,69.13
2019-02-22T17:47:53.342Z,68.84
2019-02-22T17:50:59.634Z,68.85
2019-02-22T17:54:05.006Z,69.61
2019-02-22T17:57:10.321Z,70.62
2019-02-22T18:00:17.564Z,70.33
2019-02-22T18:03:22.805Z,70.84
2019-02-22T18:06:27.953Z,70.95
2019-02-22T18:09:33.181Z,71.64
2019-02-22T18:12:38.289Z,72.12
2019-02-22T18:15:43.535Z,72.13
2019-02-22T18:18:48.812Z,72.37
2019-02-22T18:21:54.033Z,72.75
2019-02-22T18:24:59.176Z,73.30
2019-02-22T18:28:04.331Z,73.47
2019-02-22T18:31:09.477Z,73.85
2019-02-22T18:34:14.650Z,72.13
2019-02-22T18:37:19.885Z,72.28
2019-02-22T18:40:24.975Z,72.52
2019-02-22T18:43:30.137Z,72.01
2019-02-22T18:46:35.347Z,72.24
2019-02-22T18:49:40.446Z,72.03
2019-02-22T18:52:45.592Z,71.59
2019-02-22T18:55:50.727Z,71.63
2019-02-22T18:58:56.355Z,72.26
2019-02-22T19:02:01.574Z,72.67
2019-02-22T19:05:08.607Z,73.42
2019-02-22T19:08:13.756Z,73.92
2019-02-22T19:11:19.002Z,74.28
2019-02-22T19:14:24.143Z,74.09
2019-02-22T19:17:30.618Z,74.62
2019-02-22T19:20:35.877Z,75.60
2019-02-22T19:23:41.019Z,75.58
2019-02-22T19:26:46.190Z,75.06
2019-02-22T19:29:51.365Z,74.78
2019-02-22T19:32:56.506Z,75.32
2019-02-22T19:36:01.714Z,75.44
2019-02-22T19:39:07.376Z,75.08
2019-02-22T19:42:13.128Z,75.52
2019-02-22T19:45:18.315Z,75.49
2019-02-22T19:48:23.510Z,75.57
2019-02-22T19:51:28.659Z,75.44
2019-02-22T19:54:33.759Z,75.45
2019-02-22T19:57:38.908Z,75.35
2019-02-22T20:00:44.146Z,74.37
2019-02-22T20:03:49.349Z,75.28
2019-02-22T20:06:54.592Z,74.16
2019-02-22T20:10:00.790Z,74.22
2019-02-22T20:13:07.050Z,75.10
2019-02-22T20:16:12.235Z,75.37
2019-02-22T20:19:17.465Z,75.46
2019-02-22T20:22:22.800Z,74.91
2019-02-22T20:25:27.969Z,74.75
2019-02-22T20:28:35.105Z,74.89
2019-02-22T20:31:40.070Z,74.53
2019-02-22T20:34:45.215Z,74.21
2019-02-22T20:37:53.031Z,74.56
2019-02-22T20:40:57.517Z,74.54
2019-02-22T20:44:02.783Z,73.94
2019-02-22T20:47:08.031Z,74.18
2019-02-22T20:50:13.276Z,74.04
2019-02-22T20:53:18.476Z,74.15
2019-02-22T20:56:24.023Z,73.96
2019-02-22T20:59:29.303Z,74.22
2019-02-22T21:02:34.480Z,74.54
2019-02-22T21:05:39.739Z,73.77
2019-02-22T21:08:44.935Z,74.00
2019-02-22T21:11:50.084Z,72.91
2019-02-22T21:14:55.253Z,73.05
2019-02-22T21:18:00.384Z,72.54
2019-02-22T21:21:05.488Z,73.27
2019-02-22T21:24:10.635Z,73.82
2019-02-22T21:27:15.804Z,73.61
2019-02-22T21:30:21.064Z,73.34
2019-02-22T21:33:26.234Z,73.63
2019-02-22T21:36:31.362Z,74.06
2019-02-22T21:39:36.568Z,73.84
2019-02-22T21:42:41.763Z,74.40
2019-02-22T21:45:46.941Z,74.16
2019-02-22T21:48:52.125Z,74.75
2019-02-22T21:51:57.362Z,74.54
2019-02-22T21:55:02.536Z,74.74
2019-02-22T21:58:09.009Z,74.97
2019-02-22T22:01:14.135Z,74.88
2019-02-22T22:04:19.408Z,74.79
2019-02-22T22:07:24.556Z,75.53
2019-02-22T22:10:29.786Z,75.71
2019-02-22T22:13:34.907Z,75.58
2019-02-22T22:16:40.125Z,76.08
2019-02-22T22:19:45.432Z,75.62
2019-02-22T22:22:50.587Z,75.95
2019-02-22T22:25:55.738Z,75.86
2019-02-22T22:29:00.899Z,75.86
2019-02-22T22:32:06.041Z,76.13
2019-02-22T22:35:11.414Z,75.01
2019-02-22T22:38:16.633Z,74.57
2019-02-22T22:41:21.840Z,75.67
2019-02-22T22:44:27.054Z,75.54
2019-02-22T22:47:32.243Z,74.90
2019-02-22T22:50:37.371Z,74.91
2019-02-22T22:53:42.648Z,75.17
2019-02-22T22:56:47.860Z,75.18
2019-02-22T22:59:52.991Z,75.35
2019-02-22T23:02:58.228Z,74.61
2019-02-22T23:06:03.429Z,74.86
2019-02-22T23:09:18.738Z,75.23
2019-02-22T23:12:24.175Z,75.25
2019-02-22T23:15:29.385Z,74.66
2019-02-22T23:18:36.027Z,74.12
2019-02-22T23:21:41.317Z,73.99
2019-02-22T23:24:46.531Z,73.96
2019-02-22T23:27:51.747Z,74.52
2019-02-22T23:30:57.077Z,73.96
2019-02-22T23:34:02.285Z,73.38
2019-02-22T23:37:07.421Z,73.88
2019-02-22T23:40:12.572Z,73.89
2019-02-22T23:43:17.720Z,72.98
2019-02-22T23:46:22.939Z,73.39
2019-02-22T23:49:28.083Z,73.14
2019-02-22T23:52:33.936Z,73.35
2019-02-22T23:55:39.170Z,73.82
2019-02-22T23:58:45.429Z,73.71
